Portada
METAR-TAF:

METAR-TAF

Aeroports :

Guwahati, Índia

latitud: 26-06-22N, longitud: 091-35-09E, altitud: 49 m

Observació

L'informe es va fer fa 42 minuts, a les 15:30 UTC
Vent calma
Temperatura 24°C
Humitat 83%
Pressió 1014 hPa
Visibilitat: 2000 m
Núvols disperses a una alçada de 1800 ft
Cel ennuvolat a una alçada de 10000 ft
pluja

METAR: VEGT 261530Z 00000KT 2000 -RA SCT018 BKN100 24/21 Q1014 NOSIG

Hora: 21:42 (16:12 UTC)

Pronòstic

L'informe es va fer fa 2 hores i 12 minuts, a les 14:00 UTC
Pronòstic vàlid del 26 a les 15 UTC al 26 a les 24 UTC
Vent 6 kt del Sud
Visibilitat: 2500 m
Núvols disperses a una alçada de 1800 ft
Cel ennuvolat a una alçada de 10000 ft
boirina

TAF: VEGT 261400Z 2615/2624 18006KT 2500 BR SCT018 BKN100

Observacions i pronòstics meteorològics de més de 4000 aeroports (METAR i TAF).

Les estacions disponibles són els punts grocs i vermells al mapa.

Posi el ratolí al punt desitjat per veure el nom de l'estació.

Feu clic per veure les observacions i els pronòstics meteorològics.

Per canviar el mapa: feu clic els botons verds amb una creu de color negre per apropar; al botó verd amb un guió per allunyar la imatge; o en les fletxes verdes per a mapes adjacents.


METAR-TAF: